createdAt,value
2022-11-26T00:02:44.222Z,4.12
2022-11-26T00:05:57.607Z,4.11
2022-11-26T00:09:06.406Z,4.16
2022-11-26T00:12:20.274Z,4.12
2022-11-26T00:15:30.580Z,4.16
2022-11-26T00:18:36.508Z,4.19
2022-11-26T00:21:46.400Z,4.12
2022-11-26T00:24:53.476Z,4.08
2022-11-26T00:28:02.616Z,3.96
2022-11-26T00:31:17.640Z,3.91
2022-11-26T00:34:24.419Z,3.90
2022-11-26T00:37:46.202Z,3.86
2022-11-26T00:40:53.105Z,3.89
2022-11-26T00:43:59.058Z,3.98
2022-11-26T00:47:06.111Z,4.00
2022-11-26T00:50:18.706Z,4.16
2022-11-26T00:53:30.318Z,4.25
2022-11-26T00:56:38.247Z,4.29
2022-11-26T00:59:45.212Z,4.30
2022-11-26T01:02:52.185Z,4.24
2022-11-26T01:06:02.654Z,4.23
2022-11-26T01:09:22.238Z,4.30
2022-11-26T01:12:29.009Z,4.04
2022-11-26T01:15:34.877Z,4.13
2022-11-26T01:18:41.796Z,4.18
2022-11-26T01:21:47.852Z,4.19
2022-11-26T01:24:57.376Z,4.17
2022-11-26T01:28:03.487Z,4.13
2022-11-26T01:31:18.582Z,4.10
2022-11-26T01:34:24.529Z,3.89
2022-11-26T01:37:31.374Z,3.66
2022-11-26T01:41:05.471Z,3.75
2022-11-26T01:44:22.156Z,3.85
2022-11-26T01:47:31.731Z,3.83
2022-11-26T01:51:00.672Z,3.71
2022-11-26T01:54:07.031Z,3.56
2022-11-26T01:57:23.938Z,3.44
2022-11-26T02:00:29.972Z,3.37
2022-11-26T02:03:47.049Z,3.43
2022-11-26T02:06:55.239Z,3.44
2022-11-26T02:10:02.135Z,3.40
2022-11-26T02:13:10.971Z,3.48
2022-11-26T02:16:37.200Z,3.51
2022-11-26T02:20:28.203Z,3.55
2022-11-26T02:24:12.745Z,3.50
2022-11-26T02:28:11.870Z,3.51
2022-11-26T02:31:32.720Z,3.47
2022-11-26T02:34:51.659Z,3.49
2022-11-26T02:38:05.918Z,3.52
2022-11-26T02:41:12.799Z,3.53
2022-11-26T02:44:24.194Z,3.57
2022-11-26T02:47:37.668Z,3.57
2022-11-26T02:50:51.614Z,3.57
2022-11-26T02:54:00.060Z,3.63
2022-11-26T02:57:14.947Z,3.66
2022-11-26T03:00:23.504Z,3.68
2022-11-26T03:03:41.443Z,3.49
2022-11-26T03:06:50.965Z,3.30
2022-11-26T03:10:00.953Z,3.24
2022-11-26T03:13:07.751Z,3.20
2022-11-26T03:16:13.694Z,3.11
2022-11-26T03:19:23.108Z,3.21
2022-11-26T03:22:29.677Z,3.32
2022-11-26T03:25:37.014Z,3.27
2022-11-26T03:28:43.068Z,3.29
2022-11-26T03:31:49.947Z,3.38
2022-11-26T03:34:58.574Z,3.45
2022-11-26T03:38:05.347Z,3.50
2022-11-26T03:41:11.277Z,3.48
2022-11-26T03:44:18.459Z,3.44
2022-11-26T03:47:24.794Z,3.44
2022-11-26T03:50:34.155Z,3.51
2022-11-26T03:53:40.035Z,3.53
2022-11-26T03:56:46.783Z,3.54
2022-11-26T03:59:52.820Z,3.45
2022-11-26T04:02:59.683Z,3.50
2022-11-26T04:06:09.735Z,3.61
2022-11-26T04:09:16.691Z,3.67
2022-11-26T04:12:22.736Z,3.69
2022-11-26T04:15:29.483Z,3.73
2022-11-26T04:18:36.025Z,3.64
2022-11-26T04:21:45.635Z,3.64
2022-11-26T04:24:51.764Z,3.61
2022-11-26T04:27:59.146Z,3.53
2022-11-26T04:31:05.141Z,3.60
2022-11-26T04:34:11.916Z,3.55
2022-11-26T04:37:20.525Z,3.62
2022-11-26T04:40:27.250Z,3.72
2022-11-26T04:43:33.372Z,3.85
2022-11-26T04:46:40.194Z,3.92
2022-11-26T04:49:46.181Z,3.94
2022-11-26T04:52:55.782Z,3.90
2022-11-26T04:56:01.781Z,3.91
2022-11-26T04:59:08.502Z,3.68
2022-11-26T05:02:14.867Z,3.46
2022-11-26T05:05:21.979Z,3.73
2022-11-26T05:08:30.537Z,3.74
2022-11-26T05:11:37.291Z,3.91
2022-11-26T05:14:43.257Z,4.06
2022-11-26T05:17:49.969Z,4.13
2022-11-26T05:20:55.912Z,4.21
2022-11-26T05:24:05.469Z,4.29
2022-11-26T05:27:12.435Z,4.32
2022-11-26T05:30:19.781Z,4.31
2022-11-26T05:33:25.685Z,4.36
2022-11-26T05:36:32.371Z,4.46
2022-11-26T05:39:41.079Z,4.55
2022-11-26T05:42:48.214Z,4.44
2022-11-26T05:45:54.193Z,4.41
2022-11-26T05:49:01.142Z,4.45
2022-11-26T05:52:07.318Z,4.56
2022-11-26T05:55:16.731Z,4.51
2022-11-26T05:58:22.944Z,4.53
2022-11-26T06:01:29.751Z,4.58
2022-11-26T06:04:36.726Z,4.57
2022-11-26T06:07:45.092Z,4.60
2022-11-26T06:10:53.916Z,4.63
2022-11-26T06:14:00.639Z,4.64
2022-11-26T06:17:06.615Z,4.63
2022-11-26T06:20:15.609Z,4.64
2022-11-26T06:23:21.604Z,4.74
2022-11-26T06:26:31.173Z,4.78
2022-11-26T06:29:37.405Z,4.86
2022-11-26T06:32:44.217Z,4.81
2022-11-26T06:35:50.129Z,4.76
2022-11-26T06:38:56.778Z,4.75
2022-11-26T06:42:05.319Z,4.72
2022-11-26T06:45:14.211Z,4.81
2022-11-26T06:48:20.131Z,4.85
2022-11-26T06:51:27.974Z,4.84
2022-11-26T06:54:34.124Z,4.74
2022-11-26T06:57:43.450Z,4.72
2022-11-26T07:00:49.397Z,4.73
2022-11-26T07:03:56.855Z,4.87
2022-11-26T07:07:02.825Z,4.98
2022-11-26T07:10:11.395Z,4.92
2022-11-26T07:13:20.014Z,5.00
2022-11-26T07:16:28.146Z,5.06
2022-11-26T07:19:34.217Z,5.19
2022-11-26T07:22:41.247Z,5.22
2022-11-26T07:25:47.347Z,5.33
2022-11-26T07:28:56.982Z,5.43
2022-11-26T07:32:03.015Z,5.48
2022-11-26T07:35:11.313Z,5.49
2022-11-26T07:38:17.418Z,5.60
2022-11-26T07:41:25.672Z,5.71
2022-11-26T07:44:34.551Z,5.81
2022-11-26T07:47:41.523Z,5.93
2022-11-26T07:50:48.148Z,5.94
2022-11-26T07:53:56.573Z,5.83
2022-11-26T07:57:02.521Z,5.91
2022-11-26T08:00:14.096Z,5.89
2022-11-26T08:03:20.041Z,5.95
2022-11-26T08:06:30.484Z,5.95
2022-11-26T08:09:36.667Z,5.92
2022-11-26T08:12:43.795Z,5.75
2022-11-26T08:15:54.223Z,5.70
2022-11-26T08:19:04.077Z,5.68
2022-11-26T08:22:10.095Z,5.62
2022-11-26T08:25:16.925Z,5.42
2022-11-26T08:28:23.197Z,5.36
2022-11-26T08:31:35.165Z,5.15
2022-11-26T08:34:42.300Z,5.02
2022-11-26T08:37:49.100Z,5.10
2022-11-26T08:40:55.280Z,5.12
2022-11-26T08:44:06.517Z,5.26
2022-11-26T08:47:16.787Z,5.13
2022-11-26T08:50:23.635Z,4.92
2022-11-26T08:53:32.427Z,4.88
2022-11-26T08:56:40.236Z,4.79
2022-11-26T08:59:46.111Z,4.90
2022-11-26T09:02:55.511Z,4.79
2022-11-26T09:06:04.577Z,4.75
2022-11-26T09:09:15.857Z,4.70
2022-11-26T09:12:22.092Z,4.83
2022-11-26T09:15:29.078Z,4.94
2022-11-26T09:18:37.592Z,5.04
2022-11-26T09:21:44.442Z,5.08
2022-11-26T09:24:50.459Z,4.98
2022-11-26T09:27:57.257Z,5.04
2022-11-26T09:31:04.880Z,4.94
2022-11-26T09:34:15.435Z,5.08
2022-11-26T09:37:21.298Z,5.20
2022-11-26T09:40:50.649Z,5.18
2022-11-26T09:44:22.460Z,5.07
2022-11-26T09:47:38.866Z,5.20
2022-11-26T09:50:54.005Z,5.13
2022-11-26T09:54:04.701Z,5.10
2022-11-26T09:57:30.563Z,5.16
2022-11-26T10:00:44.174Z,5.23
2022-11-26T10:03:50.474Z,5.08
2022-11-26T10:07:17.517Z,4.82
2022-11-26T10:10:35.408Z,5.07
2022-11-26T10:13:57.399Z,5.15
2022-11-26T10:17:29.197Z,5.32
2022-11-26T10:21:18.210Z,5.50
2022-11-26T10:24:39.518Z,5.58
2022-11-26T10:27:47.206Z,5.75
2022-11-26T10:31:02.727Z,5.82
2022-11-26T10:34:20.260Z,5.80
2022-11-26T10:37:29.268Z,5.80
2022-11-26T10:40:39.421Z,5.80
2022-11-26T10:43:45.486Z,5.93
2022-11-26T10:46:52.243Z,5.99
2022-11-26T10:53:58.697Z,6.17
2022-11-26T10:57:21.981Z,6.05
2022-11-26T11:00:42.169Z,6.20
2022-11-26T11:04:10.772Z,6.20
2022-11-26T11:07:44.312Z,6.33
2022-11-26T11:10:59.620Z,6.15
2022-11-26T11:14:09.051Z,6.07
2022-11-26T11:17:36.464Z,6.04
2022-11-26T11:20:55.006Z,6.00
2022-11-26T11:24:12.363Z,5.78
2022-11-26T11:27:30.982Z,5.75
2022-11-26T11:30:43.624Z,5.77
2022-11-26T11:33:52.155Z,5.72
2022-11-26T11:37:11.728Z,5.79
2022-11-26T11:40:27.756Z,5.90
2022-11-26T11:43:40.040Z,5.87
2022-11-26T11:47:24.484Z,5.91
2022-11-26T11:50:39.323Z,6.06
2022-11-26T11:54:07.713Z,6.14
2022-11-26T11:57:38.355Z,6.17
2022-11-26T12:00:58.472Z,6.04
2022-11-26T12:04:46.341Z,6.17
2022-11-26T12:08:10.948Z,6.18
2022-11-26T12:11:41.163Z,6.14
2022-11-26T12:14:55.453Z,6.00
2022-11-26T12:18:16.419Z,5.85
2022-11-26T12:21:42.506Z,6.13
2022-11-26T12:24:58.035Z,6.14
2022-11-26T12:28:18.180Z,6.08
2022-11-26T12:31:35.864Z,6.07
2022-11-26T12:34:52.947Z,6.20
2022-11-26T12:38:10.874Z,6.21
2022-11-26T12:41:27.500Z,6.20
2022-11-26T12:44:43.091Z,6.29
2022-11-26T12:48:01.058Z,6.39
2022-11-26T12:51:27.467Z,6.38
2022-11-26T12:54:56.929Z,6.55
2022-11-26T12:58:17.091Z,6.56
2022-11-26T13:01:24.648Z,6.74
2022-11-26T13:04:39.435Z,6.78
2022-11-26T13:08:15.388Z,6.62
2022-11-26T13:11:43.851Z,6.68
2022-11-26T13:15:04.108Z,6.61
2022-11-26T13:18:32.606Z,6.58
2022-11-26T13:22:04.140Z,6.62
2022-11-26T13:25:47.592Z,6.49
2022-11-26T13:29:33.028Z,6.47
2022-11-26T13:33:32.400Z,6.49
2022-11-26T13:37:09.550Z,6.44
2022-11-26T13:40:57.375Z,6.32
2022-11-26T13:44:42.415Z,6.45
2022-11-26T13:47:58.154Z,6.61
2022-11-26T13:51:18.980Z,6.51
2022-11-26T13:54:33.871Z,6.52
2022-11-26T13:57:49.355Z,6.61
2022-11-26T14:00:58.080Z,6.60
2022-11-26T14:04:08.084Z,6.50
2022-11-26T14:07:24.134Z,6.49
2022-11-26T14:10:46.472Z,6.46
2022-11-26T14:14:37.663Z,6.54
2022-11-26T14:18:00.339Z,6.55
2022-11-26T14:21:16.821Z,6.60
2022-11-26T14:25:02.802Z,6.68
2022-11-26T14:28:13.406Z,6.68
2022-11-26T14:31:27.926Z,6.67
2022-11-26T14:34:44.401Z,6.65
2022-11-26T14:37:57.024Z,6.53
2022-11-26T14:41:05.622Z,6.60
2022-11-26T14:44:17.589Z,6.45
2022-11-26T14:47:25.771Z,6.50
2022-11-26T14:50:39.013Z,6.41
2022-11-26T14:53:51.757Z,6.44
2022-11-26T14:57:10.518Z,6.46
2022-11-26T15:00:27.997Z,6.34
2022-11-26T15:03:35.378Z,6.31
2022-11-26T15:06:46.336Z,6.21
2022-11-26T15:10:05.592Z,6.22
2022-11-26T15:13:26.237Z,6.24
2022-11-26T15:16:41.680Z,6.34
2022-11-26T15:19:52.023Z,6.46
2022-11-26T15:23:03.149Z,6.48
2022-11-26T15:26:09.949Z,6.33
2022-11-26T15:29:41.417Z,6.34
2022-11-26T15:32:47.520Z,6.26
2022-11-26T15:35:57.520Z,6.36
2022-11-26T15:39:08.217Z,6.36
2022-11-26T15:42:32.595Z,6.33
2022-11-26T15:45:44.568Z,6.23
2022-11-26T15:48:57.222Z,6.22
2022-11-26T15:52:09.275Z,6.07
2022-11-26T15:55:33.257Z,6.10
2022-11-26T15:58:44.521Z,6.08
2022-11-26T16:01:54.071Z,6.05
2022-11-26T16:05:02.342Z,5.71
2022-11-26T16:08:30.495Z,5.72
2022-11-26T16:11:39.401Z,5.61
2022-11-26T16:14:46.592Z,5.59
2022-11-26T16:17:56.745Z,5.48
2022-11-26T16:21:11.783Z,5.40
2022-11-26T16:24:33.751Z,5.07
2022-11-26T16:27:40.807Z,5.02
2022-11-26T16:30:48.542Z,4.93
2022-11-26T16:33:58.917Z,5.13
2022-11-26T16:37:19.205Z,5.20
2022-11-26T16:40:27.471Z,5.19
2022-11-26T16:43:33.826Z,5.25
2022-11-26T16:46:42.480Z,5.37
2022-11-26T16:49:51.891Z,5.49
2022-11-26T16:52:59.244Z,5.40
2022-11-26T16:56:05.369Z,5.42
2022-11-26T16:59:28.821Z,5.24
2022-11-26T17:02:38.167Z,5.46
2022-11-26T17:05:47.800Z,5.39
2022-11-26T17:08:55.020Z,5.11
2022-11-26T17:12:01.900Z,5.00
2022-11-26T17:15:09.105Z,4.94
2022-11-26T17:18:22.416Z,5.07
2022-11-26T17:21:31.158Z,5.26
2022-11-26T17:24:38.354Z,5.11
2022-11-26T17:27:45.642Z,5.02
2022-11-26T17:30:53.732Z,4.92
2022-11-26T17:33:59.911Z,4.89
2022-11-26T17:37:16.879Z,4.76
2022-11-26T17:40:27.293Z,4.52
2022-11-26T17:43:34.527Z,4.48
2022-11-26T17:47:08.995Z,4.52
2022-11-26T17:50:09.973Z,4.46
2022-11-26T17:53:18.515Z,4.46
2022-11-26T17:56:27.587Z,4.53
2022-11-26T17:59:34.108Z,4.69
2022-11-26T18:02:41.156Z,4.72
2022-11-26T18:05:47.301Z,4.77
2022-11-26T18:08:56.733Z,4.66
2022-11-26T18:12:04.456Z,4.64
2022-11-26T18:15:12.446Z,4.61
2022-11-26T18:18:18.454Z,4.57
2022-11-26T18:21:25.207Z,4.69
2022-11-26T18:24:34.111Z,4.49
2022-11-26T18:27:40.924Z,4.53
2022-11-26T18:30:47.037Z,4.44
2022-11-26T18:33:54.470Z,4.32
2022-11-26T18:37:00.481Z,4.31
2022-11-26T18:40:14.144Z,4.36
2022-11-26T18:43:20.257Z,4.39
2022-11-26T18:46:27.307Z,4.47
2022-11-26T18:49:33.525Z,4.64
2022-11-26T18:52:43.225Z,4.58
2022-11-26T18:55:52.061Z,4.70
2022-11-26T18:58:59.615Z,4.78
2022-11-26T19:02:06.065Z,4.85
2022-11-26T19:05:13.053Z,4.81
2022-11-26T19:08:19.847Z,4.75
2022-11-26T19:11:30.050Z,4.62
2022-11-26T19:14:35.948Z,4.55
2022-11-26T19:17:42.764Z,4.71
2022-11-26T19:20:55.643Z,4.59
2022-11-26T19:24:06.517Z,4.61
2022-11-26T19:27:16.571Z,4.43
2022-11-26T19:30:23.800Z,4.44
2022-11-26T19:33:32.672Z,4.36
2022-11-26T19:36:41.050Z,4.33
2022-11-26T19:39:47.887Z,4.33
2022-11-26T19:42:57.378Z,4.44
2022-11-26T19:46:08.903Z,4.37
2022-11-26T19:49:17.596Z,4.40
2022-11-26T19:52:23.584Z,4.63
2022-11-26T19:55:30.396Z,4.66
2022-11-26T19:58:40.353Z,4.78
2022-11-26T20:01:47.284Z,4.85
2022-11-26T20:04:53.235Z,4.70
2022-11-26T20:08:00.161Z,4.82
2022-11-26T20:11:07.683Z,4.83
2022-11-26T20:14:18.319Z,4.95
2022-11-26T20:17:24.651Z,5.00
2022-11-26T20:20:31.374Z,4.93
2022-11-26T20:23:37.296Z,5.01
2022-11-26T20:26:48.819Z,4.89
2022-11-26T20:29:57.288Z,4.86
2022-11-26T20:33:04.039Z,4.85
2022-11-26T20:36:13.250Z,4.58
2022-11-26T20:39:22.501Z,4.48
2022-11-26T20:42:28.482Z,4.54
2022-11-26T20:45:38.856Z,4.51
2022-11-26T20:48:47.596Z,4.51
2022-11-26T20:51:54.350Z,4.62
2022-11-26T20:55:00.255Z,4.55
2022-11-26T20:58:07.031Z,4.57
2022-11-26T21:01:21.139Z,4.53
2022-11-26T21:04:27.905Z,4.61
2022-11-26T21:07:34.004Z,4.55
2022-11-26T21:10:42.880Z,4.57
2022-11-26T21:13:49.034Z,4.54
2022-11-26T21:16:58.426Z,4.50
2022-11-26T21:20:04.519Z,4.61
2022-11-26T21:23:13.191Z,4.66
2022-11-26T21:26:22.157Z,4.58
2022-11-26T21:29:28.996Z,4.72
2022-11-26T21:32:37.679Z,4.72
2022-11-26T21:35:44.598Z,4.71
2022-11-26T21:38:52.614Z,4.72
2022-11-26T21:41:59.323Z,4.54
2022-11-26T21:45:05.466Z,4.47
2022-11-26T21:48:14.900Z,4.56
2022-11-26T21:51:22.892Z,4.45
2022-11-26T21:54:30.683Z,4.44
2022-11-26T21:57:38.701Z,4.27
2022-11-26T22:00:47.046Z,4.27
2022-11-26T22:03:59.235Z,4.00
2022-11-26T22:07:06.795Z,3.99
2022-11-26T22:10:14.568Z,3.90
2022-11-26T22:13:21.337Z,3.92
2022-11-26T22:16:30.686Z,3.83
2022-11-26T22:19:40.135Z,3.94
2022-11-26T22:22:46.263Z,3.97
2022-11-26T22:25:53.452Z,4.03
2022-11-26T22:29:00.109Z,4.04
2022-11-26T22:32:07.433Z,3.97
2022-11-26T22:35:16.157Z,4.03
2022-11-26T22:38:22.871Z,4.03
2022-11-26T22:41:29.511Z,4.02
2022-11-26T22:44:36.967Z,3.87
2022-11-26T22:47:42.873Z,3.93
2022-11-26T22:50:57.171Z,3.96
2022-11-26T22:54:05.227Z,3.95
2022-11-26T22:57:12.008Z,4.04
2022-11-26T23:00:51.818Z,4.09
2022-11-26T23:04:00.895Z,4.12
2022-11-26T23:07:09.852Z,4.20
2022-11-26T23:10:16.698Z,4.08
2022-11-26T23:13:22.766Z,4.01
2022-11-26T23:16:31.094Z,4.02
2022-11-26T23:19:37.233Z,3.98
2022-11-26T23:22:46.595Z,4.17
2022-11-26T23:25:52.546Z,4.19
2022-11-26T23:29:02.006Z,4.13
2022-11-26T23:32:08.137Z,4.06
2022-11-26T23:35:15.264Z,4.19
2022-11-26T23:38:24.048Z,4.15
2022-11-26T23:41:31.676Z,4.16
2022-11-26T23:44:37.576Z,4.20
2022-11-26T23:47:44.204Z,4.35
2022-11-26T23:50:50.062Z,4.38
2022-11-26T23:54:00.145Z,4.28
2022-11-26T23:57:09.249Z,4.20
